sensor_id;sensor_type;location;lat;lon;timestamp;pressure;altitude;pressure_sealevel;temperature;humidity
34103;BME280;20381;54.498;18.206;2023-04-30T00:02:07;99594.59;;;4.93;58.05
34103;BME280;20381;54.498;18.206;2023-04-30T00:04:33;99597.31;;;4.87;58.22
34103;BME280;20381;54.498;18.206;2023-04-30T00:07:00;99594.02;;;4.82;58.25
34103;BME280;20381;54.498;18.206;2023-04-30T00:09:26;99597.55;;;4.78;58.34
34103;BME280;20381;54.498;18.206;2023-04-30T00:11:53;99599.32;;;4.76;58.53
34103;BME280;20381;54.498;18.206;2023-04-30T00:14:19;99598.11;;;4.73;58.71
34103;BME280;20381;54.498;18.206;2023-04-30T00:16:46;99600.75;;;4.71;58.39
34103;BME280;20381;54.498;18.206;2023-04-30T00:19:12;99609.52;;;4.65;58.86
34103;BME280;20381;54.498;18.206;2023-04-30T00:21:38;99606.58;;;4.61;58.59
34103;BME280;20381;54.498;18.206;2023-04-30T00:24:04;99606.58;;;4.61;58.95
34103;BME280;20381;54.498;18.206;2023-04-30T00:26:31;99608.77;;;4.60;59.14
34103;BME280;20381;54.498;18.206;2023-04-30T00:28:57;99604.07;;;4.58;58.98
34103;BME280;20381;54.498;18.206;2023-04-30T00:31:23;99611.44;;;4.57;58.91
34103;BME280;20381;54.498;18.206;2023-04-30T00:33:49;99611.06;;;4.55;58.71
34103;BME280;20381;54.498;18.206;2023-04-30T00:36:16;99620.19;;;4.52;58.85
34103;BME280;20381;54.498;18.206;2023-04-30T00:38:42;99624.09;;;4.50;59.59
34103;BME280;20381;54.498;18.206;2023-04-30T00:41:09;99631.84;;;4.50;59.16
34103;BME280;20381;54.498;18.206;2023-04-30T00:43:35;99625.86;;;4.48;59.52
34103;BME280;20381;54.498;18.206;2023-04-30T00:46:01;99622.48;;;4.46;58.98
34103;BME280;20381;54.498;18.206;2023-04-30T00:48:29;99629.41;;;4.44;59.21
34103;BME280;20381;54.498;18.206;2023-04-30T00:50:56;99630.33;;;4.41;59.13
34103;BME280;20381;54.498;18.206;2023-04-30T00:53:24;99626.09;;;4.39;59.32
34103;BME280;20381;54.498;18.206;2023-04-30T00:55:52;99635.19;;;4.37;59.08
34103;BME280;20381;54.498;18.206;2023-04-30T00:58:19;99632.70;;;4.33;59.36
34103;BME280;20381;54.498;18.206;2023-04-30T01:00:46;99632.30;;;4.32;59.70
34103;BME280;20381;54.498;18.206;2023-04-30T01:03:13;99636.13;;;4.33;59.54
34103;BME280;20381;54.498;18.206;2023-04-30T01:05:39;99633.59;;;4.32;59.87
34103;BME280;20381;54.498;18.206;2023-04-30T01:08:07;99640.92;;;4.31;59.71
34103;BME280;20381;54.498;18.206;2023-04-30T01:10:45;99633.22;;;4.29;59.84
34103;BME280;20381;54.498;18.206;2023-04-30T01:13:57;99636.72;;;4.26;59.76
34103;BME280;20381;54.498;18.206;2023-04-30T01:15:53;99643.19;;;4.26;59.69
34103;BME280;20381;54.498;18.206;2023-04-30T01:18:27;99639.38;;;4.23;59.77
34103;BME280;20381;54.498;18.206;2023-04-30T01:21:04;99640.24;;;4.22;60.20
34103;BME280;20381;54.498;18.206;2023-04-30T01:28:38;99646.59;;;4.09;60.52
34103;BME280;20381;54.498;18.206;2023-04-30T01:31:16;99643.63;;;4.07;60.25
34103;BME280;20381;54.498;18.206;2023-04-30T01:33:42;99653.52;;;4.07;60.40
34103;BME280;20381;54.498;18.206;2023-04-30T01:47:06;99661.52;;;3.95;61.00
34103;BME280;20381;54.498;18.206;2023-04-30T01:49:53;99658.98;;;3.93;61.14
34103;BME280;20381;54.498;18.206;2023-04-30T01:52:22;99659.05;;;3.90;61.44
34103;BME280;20381;54.498;18.206;2023-04-30T01:54:51;99665.59;;;3.86;61.47
34103;BME280;20381;54.498;18.206;2023-04-30T01:57:27;99662.18;;;3.84;61.09
34103;BME280;20381;54.498;18.206;2023-04-30T01:59:54;99664.36;;;3.83;61.21
34103;BME280;20381;54.498;18.206;2023-04-30T02:02:21;99667.79;;;3.83;61.64
34103;BME280;20381;54.498;18.206;2023-04-30T02:04:47;99669.09;;;3.83;61.46
34103;BME280;20381;54.498;18.206;2023-04-30T02:07:49;99665.26;;;3.81;61.52
34103;BME280;20381;54.498;18.206;2023-04-30T02:09:50;99678.17;;;3.81;61.50
34103;BME280;20381;54.498;18.206;2023-04-30T02:12:16;99677.41;;;3.76;61.38
34103;BME280;20381;54.498;18.206;2023-04-30T02:14:42;99679.21;;;3.73;61.65
34103;BME280;20381;54.498;18.206;2023-04-30T02:17:09;99679.23;;;3.71;61.71
34103;BME280;20381;54.498;18.206;2023-04-30T02:19:36;99686.08;;;3.72;61.53
34103;BME280;20381;54.498;18.206;2023-04-30T02:22:02;99681.86;;;3.70;61.65
34103;BME280;20381;54.498;18.206;2023-04-30T02:24:28;99690.89;;;3.70;61.91
34103;BME280;20381;54.498;18.206;2023-04-30T02:26:54;99688.39;;;3.65;62.03
34103;BME280;20381;54.498;18.206;2023-04-30T02:29:21;99689.28;;;3.64;62.01
34103;BME280;20381;54.498;18.206;2023-04-30T02:31:47;99694.00;;;3.65;62.22
34103;BME280;20381;54.498;18.206;2023-04-30T02:34:13;99696.60;;;3.63;62.18
34103;BME280;20381;54.498;18.206;2023-04-30T02:36:39;99700.98;;;3.59;62.08
34103;BME280;20381;54.498;18.206;2023-04-30T02:39:06;99699.30;;;3.58;62.23
34103;BME280;20381;54.498;18.206;2023-04-30T02:41:34;99694.08;;;3.60;62.18
34103;BME280;20381;54.498;18.206;2023-04-30T02:44:01;99701.42;;;3.59;62.31
34103;BME280;20381;54.498;18.206;2023-04-30T02:46:28;99701.00;;;3.58;62.34
34103;BME280;20381;54.498;18.206;2023-04-30T02:48:54;99704.07;;;3.56;62.21
34103;BME280;20381;54.498;18.206;2023-04-30T02:51:20;99716.55;;;3.55;62.76
34103;BME280;20381;54.498;18.206;2023-04-30T02:53:46;99710.61;;;3.50;62.26
34103;BME280;20381;54.498;18.206;2023-04-30T02:56:13;99720.16;;;3.46;62.36
34103;BME280;20381;54.498;18.206;2023-04-30T02:58:39;99719.00;;;3.39;62.33
34103;BME280;20381;54.498;18.206;2023-04-30T03:01:06;99728.53;;;3.35;62.33
34103;BME280;20381;54.498;18.206;2023-04-30T03:03:32;99732.00;;;3.34;62.65
34103;BME280;20381;54.498;18.206;2023-04-30T03:05:58;99731.16;;;3.33;62.68
34103;BME280;20381;54.498;18.206;2023-04-30T03:08:25;99728.19;;;3.31;62.54
34103;BME280;20381;54.498;18.206;2023-04-30T03:10:52;99732.86;;;3.33;62.57
34103;BME280;20381;54.498;18.206;2023-04-30T03:13:18;99731.67;;;3.28;62.67
34103;BME280;20381;54.498;18.206;2023-04-30T03:15:46;99735.05;;;3.30;62.71
34103;BME280;20381;54.498;18.206;2023-04-30T03:18:12;99738.58;;;3.26;62.80
34103;BME280;20381;54.498;18.206;2023-04-30T03:20:38;99739.98;;;3.20;62.49
34103;BME280;20381;54.498;18.206;2023-04-30T03:23:05;99739.21;;;3.13;62.60
34103;BME280;20381;54.498;18.206;2023-04-30T03:25:32;99742.80;;;3.05;62.63
34103;BME280;20381;54.498;18.206;2023-04-30T03:27:58;99746.77;;;2.99;62.69
34103;BME280;20381;54.498;18.206;2023-04-30T03:30:24;99748.06;;;2.99;62.95
34103;BME280;20381;54.498;18.206;2023-04-30T03:32:51;99748.84;;;3.04;63.11
34103;BME280;20381;54.498;18.206;2023-04-30T03:35:17;99755.30;;;3.04;62.89
34103;BME280;20381;54.498;18.206;2023-04-30T03:37:45;99757.92;;;3.01;62.89
34103;BME280;20381;54.498;18.206;2023-04-30T03:40:12;99754.45;;;3.02;63.08
34103;BME280;20381;54.498;18.206;2023-04-30T03:42:38;99763.59;;;2.96;62.92
34103;BME280;20381;54.498;18.206;2023-04-30T03:45:06;99761.07;;;2.91;63.17
34103;BME280;20381;54.498;18.206;2023-04-30T03:47:35;99764.98;;;2.89;63.18
34103;BME280;20381;54.498;18.206;2023-04-30T03:50:02;99773.95;;;2.93;63.54
34103;BME280;20381;54.498;18.206;2023-04-30T03:52:29;99778.45;;;3.07;63.83
34103;BME280;20381;54.498;18.206;2023-04-30T03:54:56;99778.45;;;3.07;63.83
34103;BME280;20381;54.498;18.206;2023-04-30T03:57:22;99770.56;;;3.16;63.97
34103;BME280;20381;54.498;18.206;2023-04-30T03:59:49;99777.61;;;3.33;64.11
34103;BME280;20381;54.498;18.206;2023-04-30T04:02:16;99770.10;;;3.44;64.05
34103;BME280;20381;54.498;18.206;2023-04-30T04:04:42;99775.53;;;3.54;63.97
34103;BME280;20381;54.498;18.206;2023-04-30T04:07:09;99780.58;;;3.60;64.09
34103;BME280;20381;54.498;18.206;2023-04-30T04:09:36;99783.09;;;3.65;64.40
34103;BME280;20381;54.498;18.206;2023-04-30T04:12:04;99791.81;;;3.81;64.58
34103;BME280;20381;54.498;18.206;2023-04-30T04:14:30;99789.05;;;3.91;64.46
34103;BME280;20381;54.498;18.206;2023-04-30T04:16:58;99792.34;;;3.99;64.50
34103;BME280;20381;54.498;18.206;2023-04-30T04:19:27;99796.46;;;4.09;64.45
34103;BME280;20381;54.498;18.206;2023-04-30T04:21:54;99792.03;;;4.14;64.44
34103;BME280;20381;54.498;18.206;2023-04-30T04:24:24;99794.47;;;4.22;64.52
34103;BME280;20381;54.498;18.206;2023-04-30T04:26:51;99795.61;;;4.30;64.27
34103;BME280;20381;54.498;18.206;2023-04-30T04:29:18;99800.41;;;4.25;64.16
34103;BME280;20381;54.498;18.206;2023-04-30T04:31:44;99802.14;;;4.26;64.32
34103;BME280;20381;54.498;18.206;2023-04-30T04:34:12;99799.48;;;4.30;64.54
34103;BME280;20381;54.498;18.206;2023-04-30T04:36:39;99807.11;;;4.36;64.53
34103;BME280;20381;54.498;18.206;2023-04-30T04:39:05;99810.39;;;4.44;64.76
34103;BME280;20381;54.498;18.206;2023-04-30T04:41:32;99810.26;;;4.50;64.84
34103;BME280;20381;54.498;18.206;2023-04-30T04:44:00;99808.44;;;4.55;64.75
34103;BME280;20381;54.498;18.206;2023-04-30T04:46:30;99814.30;;;4.63;64.94
34103;BME280;20381;54.498;18.206;2023-04-30T04:48:57;99813.15;;;4.77;65.16
34103;BME280;20381;54.498;18.206;2023-04-30T04:51:24;99817.97;;;4.92;65.22
34103;BME280;20381;54.498;18.206;2023-04-30T04:53:50;99819.48;;;5.01;65.11
34103;BME280;20381;54.498;18.206;2023-04-30T04:56:16;99823.50;;;5.14;65.19
34103;BME280;20381;54.498;18.206;2023-04-30T04:58:43;99818.00;;;5.28;65.29
34103;BME280;20381;54.498;18.206;2023-04-30T05:01:12;99823.69;;;5.42;65.61
34103;BME280;20381;54.498;18.206;2023-04-30T05:03:38;99819.92;;;5.55;65.82
34103;BME280;20381;54.498;18.206;2023-04-30T05:06:07;99825.76;;;5.64;65.43
34103;BME280;20381;54.498;18.206;2023-04-30T05:08:33;99823.31;;;5.74;65.84
34103;BME280;20381;54.498;18.206;2023-04-30T05:11:02;99826.00;;;5.87;65.62
34103;BME280;20381;54.498;18.206;2023-04-30T05:13:28;99829.11;;;6.01;65.56
34103;BME280;20381;54.498;18.206;2023-04-30T05:15:54;99835.66;;;6.15;65.57
34103;BME280;20381;54.498;18.206;2023-04-30T05:18:21;99835.31;;;6.27;65.57
34103;BME280;20381;54.498;18.206;2023-04-30T05:20:47;99833.13;;;6.44;65.80
34103;BME280;20381;54.498;18.206;2023-04-30T05:23:14;99841.27;;;6.62;65.94
34103;BME280;20381;54.498;18.206;2023-04-30T05:25:40;99829.96;;;6.78;65.90
34103;BME280;20381;54.498;18.206;2023-04-30T05:28:06;99836.68;;;6.85;65.75
34103;BME280;20381;54.498;18.206;2023-04-30T05:30:32;99843.38;;;7.07;65.91
34103;BME280;20381;54.498;18.206;2023-04-30T05:32:59;99846.28;;;7.24;65.95
34103;BME280;20381;54.498;18.206;2023-04-30T05:35:28;99842.20;;;7.44;66.05
34103;BME280;20381;54.498;18.206;2023-04-30T05:37:59;99853.09;;;7.68;66.06
34103;BME280;20381;54.498;18.206;2023-04-30T05:40:23;99855.38;;;7.91;65.92
34103;BME280;20381;54.498;18.206;2023-04-30T05:42:49;99854.45;;;8.17;66.00
34103;BME280;20381;54.498;18.206;2023-04-30T05:45:16;99854.96;;;8.40;65.62
34103;BME280;20381;54.498;18.206;2023-04-30T05:47:42;99859.13;;;8.57;65.49
34103;BME280;20381;54.498;18.206;2023-04-30T05:50:09;99857.98;;;8.64;65.13
34103;BME280;20381;54.498;18.206;2023-04-30T05:52:35;99856.17;;;8.66;64.89
34103;BME280;20381;54.498;18.206;2023-04-30T05:55:02;99854.94;;;8.77;65.13
34103;BME280;20381;54.498;18.206;2023-04-30T05:57:28;99861.86;;;9.00;65.11
34103;BME280;20381;54.498;18.206;2023-04-30T05:59:57;99868.18;;;9.16;64.41
34103;BME280;20381;54.498;18.206;2023-04-30T06:02:23;99870.08;;;9.23;64.49
34103;BME280;20381;54.498;18.206;2023-04-30T06:04:49;99878.16;;;9.27;63.97
34103;BME280;20381;54.498;18.206;2023-04-30T06:07:16;99876.30;;;9.30;64.11
34103;BME280;20381;54.498;18.206;2023-04-30T06:09:43;99881.60;;;9.49;64.50
34103;BME280;20381;54.498;18.206;2023-04-30T06:12:10;99882.33;;;9.75;64.50
34103;BME280;20381;54.498;18.206;2023-04-30T06:14:36;99888.85;;;9.95;63.80
34103;BME280;20381;54.498;18.206;2023-04-30T06:17:02;99887.80;;;9.99;63.90
34103;BME280;20381;54.498;18.206;2023-04-30T06:19:29;99888.20;;;10.21;62.97
34103;BME280;20381;54.498;18.206;2023-04-30T06:21:58;99886.30;;;10.24;63.50
34103;BME280;20381;54.498;18.206;2023-04-30T06:24:24;99895.89;;;10.24;62.80
34103;BME280;20381;54.498;18.206;2023-04-30T06:26:52;99896.83;;;10.33;63.57
34103;BME280;20381;54.498;18.206;2023-04-30T06:29:18;99897.47;;;10.48;63.10
34103;BME280;20381;54.498;18.206;2023-04-30T06:31:44;99901.58;;;10.54;61.86
34103;BME280;20381;54.498;18.206;2023-04-30T06:34:11;99904.24;;;10.52;62.34
34103;BME280;20381;54.498;18.206;2023-04-30T06:36:37;99914.55;;;10.56;61.74
34103;BME280;20381;54.498;18.206;2023-04-30T06:39:04;99913.23;;;10.66;61.85
34103;BME280;20381;54.498;18.206;2023-04-30T06:41:30;99917.36;;;10.90;62.72
34103;BME280;20381;54.498;18.206;2023-04-30T06:43:56;99920.48;;;10.98;61.74
34103;BME280;20381;54.498;18.206;2023-04-30T06:46:22;99897.39;;;11.17;61.47
34103;BME280;20381;54.498;18.206;2023-04-30T06:48:51;99915.34;;;11.52;62.17
34103;BME280;20381;54.498;18.206;2023-04-30T06:51:17;99913.36;;;11.94;61.69
34103;BME280;20381;54.498;18.206;2023-04-30T06:53:43;99907.94;;;12.31;61.49
34103;BME280;20381;54.498;18.206;2023-04-30T06:56:09;99911.86;;;12.73;60.54
34103;BME280;20381;54.498;18.206;2023-04-30T06:58:36;99914.62;;;13.28;61.48
34103;BME280;20381;54.498;18.206;2023-04-30T07:01:03;99904.62;;;13.74;59.45
34103;BME280;20381;54.498;18.206;2023-04-30T07:03:29;99904.75;;;14.31;61.04
34103;BME280;20381;54.498;18.206;2023-04-30T07:05:56;99903.12;;;15.02;59.58
34103;BME280;20381;54.498;18.206;2023-04-30T07:08:22;99902.40;;;15.54;57.23
34103;BME280;20381;54.498;18.206;2023-04-30T07:10:49;99899.63;;;15.97;58.59
34103;BME280;20381;54.498;18.206;2023-04-30T07:13:15;99899.00;;;16.06;57.74
34103;BME280;20381;54.498;18.206;2023-04-30T07:15:42;99906.06;;;16.05;57.83
34103;BME280;20381;54.498;18.206;2023-04-30T07:18:08;99903.23;;;15.88;57.46
34103;BME280;20381;54.498;18.206;2023-04-30T07:20:34;99917.99;;;15.71;56.55
34103;BME280;20381;54.498;18.206;2023-04-30T07:23:03;99907.86;;;15.51;54.32
34103;BME280;20381;54.498;18.206;2023-04-30T07:25:30;99915.44;;;16.09;56.75
34103;BME280;20381;54.498;18.206;2023-04-30T07:27:59;99908.95;;;17.29;55.88
34103;BME280;20381;54.498;18.206;2023-04-30T07:30:25;99915.59;;;18.75;57.83
34103;BME280;20381;54.498;18.206;2023-04-30T07:32:51;99912.23;;;20.15;54.66
34103;BME280;20381;54.498;18.206;2023-04-30T07:35:21;99906.80;;;19.96;49.06
34103;BME280;20381;54.498;18.206;2023-04-30T07:37:51;99907.82;;;19.34;51.29
34103;BME280;20381;54.498;18.206;2023-04-30T07:40:17;99915.83;;;18.95;50.72
34103;BME280;20381;54.498;18.206;2023-04-30T07:42:43;99919.52;;;18.70;49.93
34103;BME280;20381;54.498;18.206;2023-04-30T07:45:10;99923.73;;;18.67;47.42
34103;BME280;20381;54.498;18.206;2023-04-30T07:47:40;99921.12;;;19.72;52.34
34103;BME280;20381;54.498;18.206;2023-04-30T07:50:07;99914.41;;;20.37;49.58
34103;BME280;20381;54.498;18.206;2023-04-30T07:52:34;99917.34;;;20.70;50.85
34103;BME280;20381;54.498;18.206;2023-04-30T07:55:08;99910.13;;;21.66;43.96
34103;BME280;20381;54.498;18.206;2023-04-30T07:57:35;99916.97;;;22.61;49.07
34103;BME280;20381;54.498;18.206;2023-04-30T08:00:04;99919.94;;;22.48;46.10
34103;BME280;20381;54.498;18.206;2023-04-30T08:02:31;99925.02;;;21.93;47.62
34103;BME280;20381;54.498;18.206;2023-04-30T08:04:58;99918.56;;;22.44;45.23
34103;BME280;20381;54.498;18.206;2023-04-30T08:07:24;99920.75;;;23.51;47.72
34103;BME280;20381;54.498;18.206;2023-04-30T08:09:51;99930.11;;;24.78;45.12
34103;BME280;20381;54.498;18.206;2023-04-30T08:12:17;99922.88;;;24.41;42.37
34103;BME280;20381;54.498;18.206;2023-04-30T08:14:43;99933.38;;;23.80;38.95
34103;BME280;20381;54.498;18.206;2023-04-30T08:17:09;99936.76;;;22.95;41.74
34103;BME280;20381;54.498;18.206;2023-04-30T08:19:37;99932.39;;;22.94;42.29
34103;BME280;20381;54.498;18.206;2023-04-30T08:22:03;99943.23;;;21.87;40.64
34103;BME280;20381;54.498;18.206;2023-04-30T08:24:29;99954.49;;;20.43;38.51
34103;BME280;20381;54.498;18.206;2023-04-30T08:26:55;99962.22;;;19.44;41.07
34103;BME280;20381;54.498;18.206;2023-04-30T08:29:22;99959.91;;;20.68;43.44
34103;BME280;20381;54.498;18.206;2023-04-30T08:31:48;99945.42;;;22.50;40.45
34103;BME280;20381;54.498;18.206;2023-04-30T08:34:14;99942.05;;;23.78;42.04
34103;BME280;20381;54.498;18.206;2023-04-30T08:36:41;99944.41;;;23.81;39.89
34103;BME280;20381;54.498;18.206;2023-04-30T08:39:07;99952.94;;;22.98;37.01
34103;BME280;20381;54.498;18.206;2023-04-30T08:41:35;99952.53;;;22.36;38.20
34103;BME280;20381;54.498;18.206;2023-04-30T08:44:02;99956.30;;;23.41;38.72
34103;BME280;20381;54.498;18.206;2023-04-30T08:46:32;99954.11;;;24.44;38.45
34103;BME280;20381;54.498;18.206;2023-04-30T08:49:03;99958.63;;;24.08;36.84
34103;BME280;20381;54.498;18.206;2023-04-30T08:51:30;99959.71;;;23.79;38.01
34103;BME280;20381;54.498;18.206;2023-04-30T08:53:57;99973.75;;;24.87;36.98
34103;BME280;20381;54.498;18.206;2023-04-30T08:56:24;99961.61;;;26.51;38.86
34103;BME280;20381;54.498;18.206;2023-04-30T08:58:52;99961.16;;;28.20;35.15
34103;BME280;20381;54.498;18.206;2023-04-30T09:01:19;99964.75;;;28.84;33.38
34103;BME280;20381;54.498;18.206;2023-04-30T09:03:45;99973.77;;;27.97;33.46
34103;BME280;20381;54.498;18.206;2023-04-30T09:06:16;99975.00;;;26.15;33.04
34103;BME280;20381;54.498;18.206;2023-04-30T09:08:47;99980.52;;;24.73;34.37
34103;BME280;20381;54.498;18.206;2023-04-30T09:13:57;99989.05;;;24.15;33.74
34103;BME280;20381;54.498;18.206;2023-04-30T09:16:26;99981.46;;;25.25;34.64
34103;BME280;20381;54.498;18.206;2023-04-30T09:18:52;99987.69;;;26.49;34.48
34103;BME280;20381;54.498;18.206;2023-04-30T09:21:34;99977.03;;;27.53;33.73
34103;BME280;20381;54.498;18.206;2023-04-30T09:24:03;99992.02;;;27.39;31.94
34103;BME280;20381;54.498;18.206;2023-04-30T09:26:40;99983.93;;;26.99;31.79
34103;BME280;20381;54.498;18.206;2023-04-30T09:29:04;99984.52;;;26.70;31.45
34103;BME280;20381;54.498;18.206;2023-04-30T09:31:39;99992.08;;;27.27;31.49
34103;BME280;20381;54.498;18.206;2023-04-30T09:34:10;99993.73;;;26.47;30.27
34103;BME280;20381;54.498;18.206;2023-04-30T09:36:35;99993.23;;;25.48;27.60
34103;BME280;20381;54.498;18.206;2023-04-30T09:39:09;100005.82;;;23.89;28.78
34103;BME280;20381;54.498;18.206;2023-04-30T09:41:46;100012.20;;;22.08;28.42
34103;BME280;20381;54.498;18.206;2023-04-30T09:44:30;100010.67;;;21.61;29.65
34103;BME280;20381;54.498;18.206;2023-04-30T09:46:57;100017.32;;;22.88;30.14
34103;BME280;20381;54.498;18.206;2023-04-30T09:49:24;100013.58;;;22.71;28.82
34103;BME280;20381;54.498;18.206;2023-04-30T09:51:59;100018.53;;;23.13;29.84
34103;BME280;20381;54.498;18.206;2023-04-30T09:54:29;100013.87;;;25.04;30.31
34103;BME280;20381;54.498;18.206;2023-04-30T09:56:58;100008.06;;;26.91;29.16
34103;BME280;20381;54.498;18.206;2023-04-30T09:59:29;100014.63;;;28.07;29.28
34103;BME280;20381;54.498;18.206;2023-04-30T10:01:59;100009.58;;;28.54;28.86
34103;BME280;20381;54.498;18.206;2023-04-30T10:04:43;100021.53;;;29.00;26.27
34103;BME280;20381;54.498;18.206;2023-04-30T10:07:21;100022.93;;;30.02;27.81
34103;BME280;20381;54.498;18.206;2023-04-30T10:09:58;100009.23;;;31.14;28.08
34103;BME280;20381;54.498;18.206;2023-04-30T10:12:38;100019.28;;;31.81;21.23
34103;BME280;20381;54.498;18.206;2023-04-30T10:17:46;100012.34;;;31.11;25.12
34103;BME280;20381;54.498;18.206;2023-04-30T10:20:14;100006.27;;;31.98;25.54
34103;BME280;20381;54.498;18.206;2023-04-30T10:22:46;100010.31;;;31.68;25.10
34103;BME280;20381;54.498;18.206;2023-04-30T10:25:13;100002.78;;;31.08;23.00
34103;BME280;20381;54.498;18.206;2023-04-30T10:27:39;100017.69;;;30.59;23.67
34103;BME280;20381;54.498;18.206;2023-04-30T10:30:05;100017.77;;;30.11;24.16
34103;BME280;20381;54.498;18.206;2023-04-30T10:32:40;100019.37;;;30.17;23.42
34103;BME280;20381;54.498;18.206;2023-04-30T10:35:18;100013.39;;;30.53;23.75
34103;BME280;20381;54.498;18.206;2023-04-30T10:37:52;100013.31;;;31.62;23.23
34103;BME280;20381;54.498;18.206;2023-04-30T10:40:18;100016.98;;;31.65;22.00
34103;BME280;20381;54.498;18.206;2023-04-30T10:42:52;100016.11;;;31.58;21.27
34103;BME280;20381;54.498;18.206;2023-04-30T10:45:17;100013.14;;;31.05;21.68
34103;BME280;20381;54.498;18.206;2023-04-30T10:47:50;100016.77;;;31.25;20.52
34103;BME280;20381;54.498;18.206;2023-04-30T10:50:13;100015.88;;;31.90;21.20
34103;BME280;20381;54.498;18.206;2023-04-30T10:52:39;100018.58;;;32.27;21.41
34103;BME280;20381;54.498;18.206;2023-04-30T10:55:10;100017.30;;;32.90;21.13
34103;BME280;20381;54.498;18.206;2023-04-30T10:57:40;100019.23;;;33.54;20.22
34103;BME280;20381;54.498;18.206;2023-04-30T11:02:44;100017.05;;;35.17;18.48
34103;BME280;20381;54.498;18.206;2023-04-30T11:05:14;100015.14;;;35.00;20.46
34103;BME280;20381;54.498;18.206;2023-04-30T11:07:51;100013.36;;;35.30;20.15
34103;BME280;20381;54.498;18.206;2023-04-30T11:10:21;100011.50;;;35.70;19.98
34103;BME280;20381;54.498;18.206;2023-04-30T11:12:50;100016.72;;;35.53;19.65
34103;BME280;20381;54.498;18.206;2023-04-30T11:15:17;100010.54;;;35.64;18.47
34103;BME280;20381;54.498;18.206;2023-04-30T11:17:48;100010.75;;;34.71;18.38
34103;BME280;20381;54.498;18.206;2023-04-30T11:20:20;100013.94;;;34.36;18.55
34103;BME280;20381;54.498;18.206;2023-04-30T11:22:46;100018.25;;;33.64;17.00
34103;BME280;20381;54.498;18.206;2023-04-30T11:25:17;100020.23;;;32.82;17.66
34103;BME280;20381;54.498;18.206;2023-04-30T11:27:43;100015.25;;;32.65;17.83
34103;BME280;20381;54.498;18.206;2023-04-30T11:30:12;100021.84;;;32.60;18.05
34103;BME280;20381;54.498;18.206;2023-04-30T11:32:44;100016.27;;;32.11;17.72
34103;BME280;20381;54.498;18.206;2023-04-30T11:35:16;100020.97;;;31.82;17.62
34103;BME280;20381;54.498;18.206;2023-04-30T11:37:43;100023.73;;;31.72;17.40
34103;BME280;20381;54.498;18.206;2023-04-30T11:40:11;100033.27;;;31.92;17.84
34103;BME280;20381;54.498;18.206;2023-04-30T11:42:40;100032.66;;;31.96;17.65
34103;BME280;20381;54.498;18.206;2023-04-30T11:45:15;100032.71;;;31.55;17.36
34103;BME280;20381;54.498;18.206;2023-04-30T11:47:44;100024.15;;;31.27;17.28
34103;BME280;20381;54.498;18.206;2023-04-30T11:50:13;100029.03;;;30.65;16.93
34103;BME280;20381;54.498;18.206;2023-04-30T11:52:41;100034.10;;;29.88;17.38
34103;BME280;20381;54.498;18.206;2023-04-30T11:55:16;100037.92;;;29.09;17.16
34103;BME280;20381;54.498;18.206;2023-04-30T11:57:44;100039.81;;;28.52;17.29
34103;BME280;20381;54.498;18.206;2023-04-30T12:00:20;100040.55;;;27.92;17.42
34103;BME280;20381;54.498;18.206;2023-04-30T12:02:48;100042.57;;;27.54;17.73
34103;BME280;20381;54.498;18.206;2023-04-30T12:07:56;100050.50;;;25.80;17.64
34103;BME280;20381;54.498;18.206;2023-04-30T12:10:23;100044.73;;;24.50;18.67
34103;BME280;20381;54.498;18.206;2023-04-30T12:12:51;100050.13;;;23.35;18.67
34103;BME280;20381;54.498;18.206;2023-04-30T12:15:23;100066.23;;;21.99;18.90
34103;BME280;20381;54.498;18.206;2023-04-30T12:17:54;100066.05;;;20.84;19.20
34103;BME280;20381;54.498;18.206;2023-04-30T12:20:22;100065.48;;;19.61;19.31
34103;BME280;20381;54.498;18.206;2023-04-30T12:22:49;100068.30;;;18.49;20.09
34103;BME280;20381;54.498;18.206;2023-04-30T12:25:18;100069.64;;;17.83;20.43
34103;BME280;20381;54.498;18.206;2023-04-30T12:27:48;100073.18;;;17.19;20.53
34103;BME280;20381;54.498;18.206;2023-04-30T12:30:20;100077.98;;;16.74;22.27
34103;BME280;20381;54.498;18.206;2023-04-30T12:32:49;100073.13;;;16.28;21.27
34103;BME280;20381;54.498;18.206;2023-04-30T12:35:18;100070.96;;;16.01;24.19
34103;BME280;20381;54.498;18.206;2023-04-30T12:37:51;100068.41;;;15.72;22.61
34103;BME280;20381;54.498;18.206;2023-04-30T12:40:20;100070.27;;;15.34;23.00
34103;BME280;20381;54.498;18.206;2023-04-30T12:42:48;100070.64;;;14.99;25.17
34103;BME280;20381;54.498;18.206;2023-04-30T12:48:10;100077.43;;;14.50;23.38
34103;BME280;20381;54.498;18.206;2023-04-30T12:50:36;100082.13;;;14.45;24.01
34103;BME280;20381;54.498;18.206;2023-04-30T12:53:06;100071.89;;;14.25;24.59
34103;BME280;20381;54.498;18.206;2023-04-30T12:55:33;100079.27;;;13.95;25.06
34103;BME280;20381;54.498;18.206;2023-04-30T12:58:06;100082.12;;;13.75;24.52
34103;BME280;20381;54.498;18.206;2023-04-30T13:00:47;100085.36;;;13.55;26.13
34103;BME280;20381;54.498;18.206;2023-04-30T13:03:17;100091.69;;;13.27;25.73
34103;BME280;20381;54.498;18.206;2023-04-30T13:05:50;100084.67;;;13.10;25.65
34103;BME280;20381;54.498;18.206;2023-04-30T13:08:22;100081.53;;;13.03;27.11
34103;BME280;20381;54.498;18.206;2023-04-30T13:10:48;100089.80;;;12.87;27.35
34103;BME280;20381;54.498;18.206;2023-04-30T13:13:16;100098.88;;;12.71;27.59
34103;BME280;20381;54.498;18.206;2023-04-30T13:15:44;100095.78;;;12.45;27.43
34103;BME280;20381;54.498;18.206;2023-04-30T13:18:11;100098.11;;;12.15;28.28
34103;BME280;20381;54.498;18.206;2023-04-30T13:20:37;100095.56;;;12.05;32.64
34103;BME280;20381;54.498;18.206;2023-04-30T13:23:05;100096.87;;;12.05;32.81
34103;BME280;20381;54.498;18.206;2023-04-30T13:25:32;100102.40;;;11.99;28.73
34103;BME280;20381;54.498;18.206;2023-04-30T13:27:59;100106.20;;;11.92;28.97